Aérodrome :
LOGIN :

S'inscrire | Disclaimer

   EN    FR    IT 

 










Légende :    VFR   VFR Marginal   IFR   IFR Intensif   IFR Très Intensif
Visi : 
Plafond : 
>= 8 km
>= 3000ft
5 à 8 km
1000 à 3000 ft
1500m à 5 km
500 à 1000 ft
800 à 1500m
200 à 500 ft
< 800m
< 200 ft
Symboles :   Orages  Brouillard  Fortes neiges  Fortes précipitations  Vent > 20 kt
SIGMETs :   Divers  Orages  Givrage  Turbulence  Onde Orograph.  Cendres Volcan.






- Altitude de l'aérodrome : 160 ft
- Code IATA : FMO


EDDG - Münster Osnabrück Int.

DERNIER METAR :
  • 010250Z 22006KT 200V260 6000 BKN005 BKN010 05/05 Q1010 NOSIG

METARs EXPIRÉS :
  • 010220Z 22006KT 200V260 4500 -RADZ BKN005 05/05 Q1010 TEMPO 7000
  • 010150Z 21009KT 3500 -RADZ BKN005 05/05 Q1011 TEMPO 7000
  • 010120Z 21008KT 170V230 7000 BKN005 05/04 Q1011 TEMPO 4000
  • 010050Z 21009KT 180V240 7000 BKN005 05/04 Q1011 TEMPO 4000
  • 010020Z 19010KT 150V210 7000 -RADZ BKN005 05/04 Q1010 TEMPO 4000

TAF TAF EDDG
Valide du 01 à 00h jusqu'au 02 à 00h UTC


302300Z 0100/0124 22007KT 8000 BKN007
TEMPO 0100/0112 2500 -RADZ BKN003
BECMG 0104/0107 28004KT
BECMG 0110/0113 36005KT
TEMPO 0112/0124 3500 BR



MET'MAP, la Météo Aéronautique d'un coup d'oeil ! - Copyright ORBIFLY Décembre 2007 - Disclaimer

ORBIFLY MET'MAP TEAM :

Programmation & Développement : Alexandra Zaïnal
Sur une idée originale de : Baudouin d'Aumeries
Assistance à la programmation : Marc-Olivier Méhu
Soutien technique & logistique : Manuel Goepfert

Contact : metmap@orbifly.com




SOURCES & CREDITS :

   NOAA